Capitol Logistics 1814

Operating for CJT



CYHM
John C. Munro Hamilton International Airport
Hamilton, CA
CYHZ
Halifax / Stanfield International Airport
Halifax, CA

Activity Log

Date Flight Route Aircraft Duration
No Flights Yet

Route Details

Aircraft Information
Group: North America Fleet
Types: B738,B752,B762,B763
Route Data
Demand: V
Distance: 716nm
Duration: 1h 39m
Recm'd Route: SUTUL UKPAG DEDKI Q913 CABCI Q29 EBONY FUNDY5
Origin Wx: CYHM 272200Z 21012KT 15SM FEW036 FEW130 SCT250 23/14 A2968 RMK CU1AC1CI2 AC TR SLP051 DENSITY ALT 2200FT
Dest. Wx: CYHZ 272200Z 21010G16KT 2SM -DZ BR BKN006 OVC013 16/15 A2989 RMK ST5SC3 SLP127 DENSITY ALT 700FT
Notes:

Financial History
Total Freight: 0lbs
Average Load: 0lbs/flt
Fuel Used: 0lbs
Avg. Fuel Used: 0lbs/flt
Fuel Expense: $0
Avg. Fuel Expense: $0
Avg. Fuel Cost: $0/lbs
Total Gross Income: $0
Pilot Pay: $0
Total Expenses: $0
Total Revenue: $0
Average Revenue: $0